sensor_id;sensor_type;location;lat;lon;timestamp;pressure;altitude;pressure_sealevel;temperature;humidity
75157;BME280;63736;50.076;8.198;2023-12-28T00:00:05;99455.06;;;3.02;100.00
75157;BME280;63736;50.076;8.198;2023-12-28T00:02:30;99460.25;;;3.04;100.00
75157;BME280;63736;50.076;8.198;2023-12-28T00:04:55;99454.88;;;3.05;100.00
75157;BME280;63736;50.076;8.198;2023-12-28T00:07:20;99461.94;;;3.05;100.00
75157;BME280;63736;50.076;8.198;2023-12-28T00:09:46;99463.66;;;3.06;100.00
75157;BME280;63736;50.076;8.198;2023-12-28T00:12:11;99455.81;;;3.04;100.00
75157;BME280;63736;50.076;8.198;2023-12-28T00:14:36;99446.13;;;3.05;100.00
75157;BME280;63736;50.076;8.198;2023-12-28T00:17:01;99457.44;;;3.07;100.00
75157;BME280;63736;50.076;8.198;2023-12-28T00:19:26;99459.13;;;3.08;100.00
75157;BME280;63736;50.076;8.198;2023-12-28T00:21:51;99455.34;;;3.13;100.00
75157;BME280;63736;50.076;8.198;2023-12-28T00:24:20;99456.78;;;3.19;100.00
75157;BME280;63736;50.076;8.198;2023-12-28T00:26:46;99448.44;;;3.27;100.00
75157;BME280;63736;50.076;8.198;2023-12-28T00:29:11;99462.91;;;3.36;100.00
75157;BME280;63736;50.076;8.198;2023-12-28T00:31:36;99465.13;;;3.43;100.00
75157;BME280;63736;50.076;8.198;2023-12-28T00:34:01;99460.28;;;3.52;100.00
75157;BME280;63736;50.076;8.198;2023-12-28T00:36:26;99456.53;;;3.56;100.00
75157;BME280;63736;50.076;8.198;2023-12-28T00:38:52;99457.34;;;3.56;100.00
75157;BME280;63736;50.076;8.198;2023-12-28T00:41:17;99458.22;;;3.57;100.00
75157;BME280;63736;50.076;8.198;2023-12-28T00:43:42;99448.50;;;3.57;100.00
75157;BME280;63736;50.076;8.198;2023-12-28T00:46:08;99447.91;;;3.52;100.00
75157;BME280;63736;50.076;8.198;2023-12-28T00:48:33;99453.28;;;3.51;100.00
75157;BME280;63736;50.076;8.198;2023-12-28T00:50:58;99446.38;;;3.48;100.00
75157;BME280;63736;50.076;8.198;2023-12-28T00:53:26;99444.53;;;3.50;100.00
75157;BME280;63736;50.076;8.198;2023-12-28T00:55:51;99468.78;;;3.57;100.00
75157;BME280;63736;50.076;8.198;2023-12-28T00:58:17;99452.59;;;3.63;100.00
75157;BME280;63736;50.076;8.198;2023-12-28T01:00:42;99440.94;;;3.67;100.00
75157;BME280;63736;50.076;8.198;2023-12-28T01:03:07;99425.56;;;3.74;100.00
75157;BME280;63736;50.076;8.198;2023-12-28T01:05:32;99449.00;;;3.80;100.00
75157;BME280;63736;50.076;8.198;2023-12-28T01:07:57;99461.84;;;3.86;100.00
75157;BME280;63736;50.076;8.198;2023-12-28T01:10:23;99480.94;;;3.91;100.00
75157;BME280;63736;50.076;8.198;2023-12-28T01:12:48;99479.75;;;3.97;100.00
75157;BME280;63736;50.076;8.198;2023-12-28T01:15:13;99479.31;;;4.05;100.00
75157;BME280;63736;50.076;8.198;2023-12-28T01:17:38;99487.72;;;4.11;100.00
75157;BME280;63736;50.076;8.198;2023-12-28T01:20:04;99487.44;;;4.16;100.00
75157;BME280;63736;50.076;8.198;2023-12-28T01:22:29;99487.09;;;4.22;100.00
75157;BME280;63736;50.076;8.198;2023-12-28T01:24:54;99484.09;;;4.28;100.00
75157;BME280;63736;50.076;8.198;2023-12-28T01:27:20;99480.22;;;4.34;100.00
75157;BME280;63736;50.076;8.198;2023-12-28T01:29:45;99478.94;;;4.41;100.00
75157;BME280;63736;50.076;8.198;2023-12-28T01:32:10;99485.66;;;4.47;100.00
75157;BME280;63736;50.076;8.198;2023-12-28T01:34:35;99487.00;;;4.54;100.00
75157;BME280;63736;50.076;8.198;2023-12-28T01:37:00;99503.34;;;4.61;100.00
75157;BME280;63736;50.076;8.198;2023-12-28T01:39:25;99497.59;;;4.69;100.00
75157;BME280;63736;50.076;8.198;2023-12-28T01:41:51;99500.72;;;4.75;100.00
75157;BME280;63736;50.076;8.198;2023-12-28T01:44:16;99513.41;;;4.85;100.00
75157;BME280;63736;50.076;8.198;2023-12-28T01:46:41;99514.66;;;4.93;100.00
75157;BME280;63736;50.076;8.198;2023-12-28T01:49:07;99493.00;;;5.01;100.00
75157;BME280;63736;50.076;8.198;2023-12-28T01:51:32;99504.72;;;5.11;100.00
75157;BME280;63736;50.076;8.198;2023-12-28T01:53:58;99523.63;;;5.20;100.00
75157;BME280;63736;50.076;8.198;2023-12-28T01:56:23;99506.31;;;5.28;100.00
75157;BME280;63736;50.076;8.198;2023-12-28T01:58:49;99504.13;;;5.35;100.00
75157;BME280;63736;50.076;8.198;2023-12-28T02:01:14;99513.50;;;5.41;100.00
75157;BME280;63736;50.076;8.198;2023-12-28T02:03:39;99512.16;;;5.48;100.00
75157;BME280;63736;50.076;8.198;2023-12-28T02:06:05;99519.75;;;5.54;100.00
75157;BME280;63736;50.076;8.198;2023-12-28T02:08:31;99511.31;;;5.62;100.00
75157;BME280;63736;50.076;8.198;2023-12-28T02:10:56;99519.72;;;5.69;100.00
75157;BME280;63736;50.076;8.198;2023-12-28T02:13:21;99515.69;;;5.76;100.00
75157;BME280;63736;50.076;8.198;2023-12-28T02:15:47;99509.91;;;5.84;100.00
75157;BME280;63736;50.076;8.198;2023-12-28T02:18:17;99514.59;;;5.93;100.00
75157;BME280;63736;50.076;8.198;2023-12-28T02:20:44;99510.53;;;6.02;100.00
75157;BME280;63736;50.076;8.198;2023-12-28T02:23:10;99521.53;;;6.10;100.00
75157;BME280;63736;50.076;8.198;2023-12-28T02:25:36;99523.56;;;6.19;100.00
75157;BME280;63736;50.076;8.198;2023-12-28T02:28:01;99521.25;;;6.27;100.00
75157;BME280;63736;50.076;8.198;2023-12-28T02:30:27;99535.81;;;6.35;100.00
75157;BME280;63736;50.076;8.198;2023-12-28T02:33:00;99509.63;;;6.43;100.00
75157;BME280;63736;50.076;8.198;2023-12-28T02:35:37;99525.97;;;6.50;100.00
75157;BME280;63736;50.076;8.198;2023-12-28T02:38:05;99538.84;;;6.56;100.00
75157;BME280;63736;50.076;8.198;2023-12-28T02:40:34;99541.91;;;6.63;100.00
75157;BME280;63736;50.076;8.198;2023-12-28T02:43:01;99524.09;;;6.65;100.00
75157;BME280;63736;50.076;8.198;2023-12-28T02:45:26;99526.66;;;6.66;100.00
75157;BME280;63736;50.076;8.198;2023-12-28T02:47:51;99531.00;;;6.67;100.00
75157;BME280;63736;50.076;8.198;2023-12-28T02:50:17;99541.50;;;6.69;100.00
75157;BME280;63736;50.076;8.198;2023-12-28T02:52:42;99534.38;;;6.69;100.00
75157;BME280;63736;50.076;8.198;2023-12-28T02:55:07;99528.88;;;6.72;100.00
75157;BME280;63736;50.076;8.198;2023-12-28T02:57:33;99536.63;;;6.75;100.00
75157;BME280;63736;50.076;8.198;2023-12-28T02:59:58;99537.38;;;6.77;100.00
75157;BME280;63736;50.076;8.198;2023-12-28T03:02:26;99528.34;;;6.80;100.00
75157;BME280;63736;50.076;8.198;2023-12-28T03:04:51;99518.69;;;6.79;100.00
75157;BME280;63736;50.076;8.198;2023-12-28T03:07:16;99533.66;;;6.80;100.00
75157;BME280;63736;50.076;8.198;2023-12-28T03:09:43;99548.63;;;6.81;100.00
75157;BME280;63736;50.076;8.198;2023-12-28T03:12:08;99537.19;;;6.81;100.00
75157;BME280;63736;50.076;8.198;2023-12-28T03:14:33;99535.47;;;6.80;100.00
75157;BME280;63736;50.076;8.198;2023-12-28T03:16:58;99531.88;;;6.81;100.00
75157;BME280;63736;50.076;8.198;2023-12-28T03:19:24;99516.78;;;6.81;100.00
75157;BME280;63736;50.076;8.198;2023-12-28T03:21:49;99533.47;;;6.83;100.00
75157;BME280;63736;50.076;8.198;2023-12-28T03:24:14;99525.38;;;6.85;100.00
75157;BME280;63736;50.076;8.198;2023-12-28T03:26:39;99515.59;;;6.85;100.00
75157;BME280;63736;50.076;8.198;2023-12-28T03:29:05;99520.72;;;6.88;100.00
75157;BME280;63736;50.076;8.198;2023-12-28T03:31:30;99529.41;;;6.90;100.00
75157;BME280;63736;50.076;8.198;2023-12-28T03:33:55;99532.53;;;6.97;100.00
75157;BME280;63736;50.076;8.198;2023-12-28T03:36:20;99528.47;;;7.04;100.00
75157;BME280;63736;50.076;8.198;2023-12-28T03:38:46;99544.81;;;7.11;100.00
75157;BME280;63736;50.076;8.198;2023-12-28T03:41:17;99533.56;;;7.20;100.00
75157;BME280;63736;50.076;8.198;2023-12-28T03:43:43;99524.53;;;7.23;100.00
75157;BME280;63736;50.076;8.198;2023-12-28T03:46:09;99533.03;;;7.28;100.00
75157;BME280;63736;50.076;8.198;2023-12-28T03:48:35;99539.09;;;7.30;100.00
75157;BME280;63736;50.076;8.198;2023-12-28T03:51:00;99522.09;;;7.33;100.00
75157;BME280;63736;50.076;8.198;2023-12-28T03:53:26;99542.91;;;7.39;100.00
75157;BME280;63736;50.076;8.198;2023-12-28T03:55:51;99536.41;;;7.43;100.00
75157;BME280;63736;50.076;8.198;2023-12-28T03:58:16;99536.31;;;7.44;100.00
75157;BME280;63736;50.076;8.198;2023-12-28T04:00:41;99537.13;;;7.45;100.00
75157;BME280;63736;50.076;8.198;2023-12-28T04:03:06;99547.69;;;7.47;100.00
75157;BME280;63736;50.076;8.198;2023-12-28T04:05:31;99540.44;;;7.49;100.00
75157;BME280;63736;50.076;8.198;2023-12-28T04:07:57;99527.03;;;7.50;100.00
75157;BME280;63736;50.076;8.198;2023-12-28T04:10:28;99519.94;;;7.51;100.00
75157;BME280;63736;50.076;8.198;2023-12-28T04:12:54;99531.41;;;7.51;100.00
75157;BME280;63736;50.076;8.198;2023-12-28T04:15:22;99547.88;;;7.56;100.00
75157;BME280;63736;50.076;8.198;2023-12-28T04:17:47;99554.66;;;7.60;100.00
75157;BME280;63736;50.076;8.198;2023-12-28T04:20:12;99544.91;;;7.61;100.00
75157;BME280;63736;50.076;8.198;2023-12-28T04:22:38;99534.16;;;7.63;100.00
75157;BME280;63736;50.076;8.198;2023-12-28T04:25:03;99517.25;;;7.64;100.00
75157;BME280;63736;50.076;8.198;2023-12-28T04:27:28;99524.34;;;7.63;100.00
75157;BME280;63736;50.076;8.198;2023-12-28T04:29:53;99527.75;;;7.65;100.00
75157;BME280;63736;50.076;8.198;2023-12-28T04:32:18;99531.25;;;7.66;100.00
75157;BME280;63736;50.076;8.198;2023-12-28T04:34:44;99540.94;;;7.67;100.00
75157;BME280;63736;50.076;8.198;2023-12-28T04:37:09;99548.81;;;7.68;100.00
75157;BME280;63736;50.076;8.198;2023-12-28T04:39:34;99539.03;;;7.69;100.00
75157;BME280;63736;50.076;8.198;2023-12-28T04:41:59;99535.38;;;7.70;100.00
75157;BME280;63736;50.076;8.198;2023-12-28T04:44:24;99550.50;;;7.69;100.00
75157;BME280;63736;50.076;8.198;2023-12-28T04:46:51;99551.47;;;7.68;100.00
75157;BME280;63736;50.076;8.198;2023-12-28T04:49:16;99561.13;;;7.69;100.00
75157;BME280;63736;50.076;8.198;2023-12-28T04:51:42;99560.19;;;7.70;100.00
75157;BME280;63736;50.076;8.198;2023-12-28T04:54:07;99576.97;;;7.71;100.00
75157;BME280;63736;50.076;8.198;2023-12-28T04:56:33;99570.72;;;7.72;100.00
75157;BME280;63736;50.076;8.198;2023-12-28T04:58:58;99572.41;;;7.73;100.00
75157;BME280;63736;50.076;8.198;2023-12-28T05:01:23;99581.22;;;7.73;100.00
75157;BME280;63736;50.076;8.198;2023-12-28T05:03:49;99570.59;;;7.73;100.00
75157;BME280;63736;50.076;8.198;2023-12-28T05:06:14;99578.56;;;7.73;100.00
75157;BME280;63736;50.076;8.198;2023-12-28T05:08:39;99578.56;;;7.73;100.00
75157;BME280;63736;50.076;8.198;2023-12-28T05:11:05;99585.59;;;7.74;100.00
75157;BME280;63736;50.076;8.198;2023-12-28T05:13:30;99582.94;;;7.74;100.00
75157;BME280;63736;50.076;8.198;2023-12-28T05:15:55;99574.63;;;7.79;100.00
75157;BME280;63736;50.076;8.198;2023-12-28T05:18:21;99568.03;;;7.85;100.00
75157;BME280;63736;50.076;8.198;2023-12-28T05:20:46;99566.72;;;7.90;100.00
75157;BME280;63736;50.076;8.198;2023-12-28T05:23:11;99564.81;;;7.92;100.00
75157;BME280;63736;50.076;8.198;2023-12-28T05:25:36;99565.44;;;7.96;100.00
75157;BME280;63736;50.076;8.198;2023-12-28T05:28:01;99559.13;;;7.97;100.00
75157;BME280;63736;50.076;8.198;2023-12-28T05:30:27;99556.47;;;7.97;100.00
75157;BME280;63736;50.076;8.198;2023-12-28T05:32:52;99563.84;;;7.93;100.00
75157;BME280;63736;50.076;8.198;2023-12-28T05:35:17;99572.03;;;7.90;100.00
75157;BME280;63736;50.076;8.198;2023-12-28T05:37:42;99562.25;;;7.91;100.00
75157;BME280;63736;50.076;8.198;2023-12-28T05:40:07;99558.97;;;7.87;100.00
75157;BME280;63736;50.076;8.198;2023-12-28T05:42:34;99570.56;;;7.86;100.00
75157;BME280;63736;50.076;8.198;2023-12-28T05:44:59;99565.59;;;7.82;100.00
75157;BME280;63736;50.076;8.198;2023-12-28T05:47:25;99569.22;;;7.81;100.00
75157;BME280;63736;50.076;8.198;2023-12-28T05:49:50;99566.88;;;7.76;100.00
75157;BME280;63736;50.076;8.198;2023-12-28T05:52:16;99577.72;;;7.73;100.00
75157;BME280;63736;50.076;8.198;2023-12-28T05:54:43;99580.50;;;7.71;100.00
75157;BME280;63736;50.076;8.198;2023-12-28T05:57:09;99579.00;;;7.67;100.00
75157;BME280;63736;50.076;8.198;2023-12-28T05:59:37;99572.19;;;7.63;100.00
75157;BME280;63736;50.076;8.198;2023-12-28T06:02:02;99579.34;;;7.63;100.00
75157;BME280;63736;50.076;8.198;2023-12-28T06:04:28;99570.53;;;7.62;100.00
75157;BME280;63736;50.076;8.198;2023-12-28T06:06:53;99571.47;;;7.61;100.00
75157;BME280;63736;50.076;8.198;2023-12-28T06:09:18;99559.91;;;7.62;100.00
75157;BME280;63736;50.076;8.198;2023-12-28T06:11:43;99558.91;;;7.63;100.00
75157;BME280;63736;50.076;8.198;2023-12-28T06:14:09;99560.50;;;7.66;100.00
75157;BME280;63736;50.076;8.198;2023-12-28T06:16:34;99550.75;;;7.66;100.00
75157;BME280;63736;50.076;8.198;2023-12-28T06:18:59;99555.94;;;7.68;100.00
75157;BME280;63736;50.076;8.198;2023-12-28T06:21:25;99563.16;;;7.66;100.00
75157;BME280;63736;50.076;8.198;2023-12-28T06:23:50;99565.94;;;7.64;100.00
75157;BME280;63736;50.076;8.198;2023-12-28T06:26:15;99557.25;;;7.62;100.00
75157;BME280;63736;50.076;8.198;2023-12-28T06:28:40;99562.03;;;7.57;100.00
75157;BME280;63736;50.076;8.198;2023-12-28T06:31:06;99563.28;;;7.51;100.00
75157;BME280;63736;50.076;8.198;2023-12-28T06:33:31;99563.53;;;7.48;100.00
75157;BME280;63736;50.076;8.198;2023-12-28T06:35:56;99567.25;;;7.46;100.00
75157;BME280;63736;50.076;8.198;2023-12-28T06:38:23;99573.50;;;7.44;100.00
75157;BME280;63736;50.076;8.198;2023-12-28T06:40:48;99562.88;;;7.44;100.00
75157;BME280;63736;50.076;8.198;2023-12-28T06:43:13;99562.78;;;7.46;100.00
75157;BME280;63736;50.076;8.198;2023-12-28T06:45:38;99562.03;;;7.44;100.00
75157;BME280;63736;50.076;8.198;2023-12-28T06:48:04;99559.47;;;7.42;100.00
75157;BME280;63736;50.076;8.198;2023-12-28T06:50:29;99556.19;;;7.39;100.00
75157;BME280;63736;50.076;8.198;2023-12-28T06:52:54;99563.31;;;7.38;100.00
75157;BME280;63736;50.076;8.198;2023-12-28T06:55:20;99563.41;;;7.37;100.00
75157;BME280;63736;50.076;8.198;2023-12-28T06:57:45;99569.69;;;7.36;100.00
75157;BME280;63736;50.076;8.198;2023-12-28T07:00:10;99568.84;;;7.35;100.00
75157;BME280;63736;50.076;8.198;2023-12-28T07:02:35;99573.22;;;7.36;100.00
75157;BME280;63736;50.076;8.198;2023-12-28T07:05:01;99573.94;;;7.38;100.00
75157;BME280;63736;50.076;8.198;2023-12-28T07:07:26;99564.25;;;7.37;100.00
75157;BME280;63736;50.076;8.198;2023-12-28T07:09:51;99565.13;;;7.38;100.00
75157;BME280;63736;50.076;8.198;2023-12-28T07:12:16;99558.22;;;7.35;100.00
75157;BME280;63736;50.076;8.198;2023-12-28T07:14:45;99561.00;;;7.34;100.00
75157;BME280;63736;50.076;8.198;2023-12-28T07:17:10;99565.31;;;7.35;100.00
75157;BME280;63736;50.076;8.198;2023-12-28T07:19:37;99573.28;;;7.35;100.00
75157;BME280;63736;50.076;8.198;2023-12-28T07:22:02;99575.00;;;7.36;100.00
75157;BME280;63736;50.076;8.198;2023-12-28T07:24:27;99576.81;;;7.35;100.00
75157;BME280;63736;50.076;8.198;2023-12-28T07:26:52;99593.59;;;7.36;100.00
75157;BME280;63736;50.076;8.198;2023-12-28T07:29:17;99593.00;;;7.32;100.00
75157;BME280;63736;50.076;8.198;2023-12-28T07:31:43;99582.34;;;7.32;100.00
75157;BME280;63736;50.076;8.198;2023-12-28T07:34:08;99590.31;;;7.32;100.00
75157;BME280;63736;50.076;8.198;2023-12-28T07:36:34;99587.66;;;7.32;100.00
75157;BME280;63736;50.076;8.198;2023-12-28T07:38:59;99591.41;;;7.30;100.00
75157;BME280;63736;50.076;8.198;2023-12-28T07:41:24;99591.41;;;7.30;100.00
75157;BME280;63736;50.076;8.198;2023-12-28T07:43:49;99596.91;;;7.26;100.00
75157;BME280;63736;50.076;8.198;2023-12-28T07:46:15;99604.88;;;7.26;100.00
75157;BME280;63736;50.076;8.198;2023-12-28T07:48:40;99611.13;;;7.25;100.00
75157;BME280;63736;50.076;8.198;2023-12-28T07:51:06;99610.06;;;7.28;100.00
75157;BME280;63736;50.076;8.198;2023-12-28T07:53:31;99612.72;;;7.28;100.00
75157;BME280;63736;50.076;8.198;2023-12-28T07:55:57;99600.44;;;7.27;100.00
75157;BME280;63736;50.076;8.198;2023-12-28T07:58:22;99602.03;;;7.30;100.00
75157;BME280;63736;50.076;8.198;2023-12-28T08:00:47;99607.13;;;7.33;100.00
75157;BME280;63736;50.076;8.198;2023-12-28T08:03:12;99604.44;;;7.33;100.00
75157;BME280;63736;50.076;8.198;2023-12-28T08:05:40;99610.50;;;7.35;100.00
75157;BME280;63736;50.076;8.198;2023-12-28T08:08:05;99601.56;;;7.36;100.00
75157;BME280;63736;50.076;8.198;2023-12-28T08:10:31;99600.72;;;7.35;100.00
75157;BME280;63736;50.076;8.198;2023-12-28T08:12:56;99604.13;;;7.37;100.00
75157;BME280;63736;50.076;8.198;2023-12-28T08:15:21;99605.09;;;7.36;100.00
75157;BME280;63736;50.076;8.198;2023-12-28T08:17:46;99619.00;;;7.40;100.00
75157;BME280;63736;50.076;8.198;2023-12-28T08:20:11;99607.31;;;7.42;100.00
75157;BME280;63736;50.076;8.198;2023-12-28T08:22:37;99602.75;;;7.44;100.00
75157;BME280;63736;50.076;8.198;2023-12-28T08:25:02;99607.13;;;7.46;100.00
75157;BME280;63736;50.076;8.198;2023-12-28T08:27:27;99602.31;;;7.51;100.00
75157;BME280;63736;50.076;8.198;2023-12-28T08:29:53;99601.25;;;7.53;100.00
75157;BME280;63736;50.076;8.198;2023-12-28T08:32:19;99600.09;;;7.57;100.00
75157;BME280;63736;50.076;8.198;2023-12-28T08:34:45;99607.81;;;7.60;100.00
75157;BME280;63736;50.076;8.198;2023-12-28T08:37:11;99597.72;;;7.66;100.00
75157;BME280;63736;50.076;8.198;2023-12-28T08:39:36;99603.44;;;7.72;100.00
75157;BME280;63736;50.076;8.198;2023-12-28T08:42:01;99592.38;;;7.78;100.00
75157;BME280;63736;50.076;8.198;2023-12-28T08:44:26;99595.44;;;7.85;100.00
75157;BME280;63736;50.076;8.198;2023-12-28T08:46:52;99599.38;;;7.92;100.00
75157;BME280;63736;50.076;8.198;2023-12-28T08:49:17;99614.69;;;8.02;100.00
75157;BME280;63736;50.076;8.198;2023-12-28T08:51:42;99608.91;;;8.08;100.00
75157;BME280;63736;50.076;8.198;2023-12-28T08:54:07;99610.06;;;8.17;100.00
75157;BME280;63736;50.076;8.198;2023-12-28T08:56:34;99611.31;;;8.24;100.00
75157;BME280;63736;50.076;8.198;2023-12-28T08:58:59;99609.69;;;8.34;100.00
75157;BME280;63736;50.076;8.198;2023-12-28T09:01:24;99600.84;;;8.47;100.00
75157;BME280;63736;50.076;8.198;2023-12-28T09:03:54;99610.94;;;8.66;100.00
75157;BME280;63736;50.076;8.198;2023-12-28T09:06:19;99616.38;;;8.88;100.00
75157;BME280;63736;50.076;8.198;2023-12-28T09:08:45;99624.00;;;9.29;100.00
75157;BME280;63736;50.076;8.198;2023-12-28T09:11:12;99625.47;;;9.67;100.00
75157;BME280;63736;50.076;8.198;2023-12-28T09:13:41;99616.63;;;10.00;100.00
75157;BME280;63736;50.076;8.198;2023-12-28T09:16:12;99616.22;;;10.28;100.00
75157;BME280;63736;50.076;8.198;2023-12-28T09:18:38;99613.63;;;10.49;100.00
75157;BME280;63736;50.076;8.198;2023-12-28T09:21:04;99625.38;;;10.57;100.00
75157;BME280;63736;50.076;8.198;2023-12-28T09:23:30;99628.91;;;10.58;100.00
75157;BME280;63736;50.076;8.198;2023-12-28T09:25:56;99623.81;;;10.55;100.00
75157;BME280;63736;50.076;8.198;2023-12-28T09:28:22;99611.47;;;10.43;100.00
75157;BME280;63736;50.076;8.198;2023-12-28T09:30:47;99615.34;;;10.27;100.00
75157;BME280;63736;50.076;8.198;2023-12-28T09:33:12;99626.28;;;10.13;100.00
75157;BME280;63736;50.076;8.198;2023-12-28T09:35:38;99638.06;;;9.99;100.00
75157;BME280;63736;50.076;8.198;2023-12-28T09:38:03;99631.31;;;9.83;100.00
75157;BME280;63736;50.076;8.198;2023-12-28T09:40:28;99637.59;;;9.71;100.00
75157;BME280;63736;50.076;8.198;2023-12-28T09:42:57;99639.91;;;9.64;100.00
75157;BME280;63736;50.076;8.198;2023-12-28T09:45:26;99649.13;;;9.60;100.00
75157;BME280;63736;50.076;8.198;2023-12-28T09:47:51;99643.16;;;9.56;100.00
75157;BME280;63736;50.076;8.198;2023-12-28T09:50:17;99647.88;;;9.53;100.00
75157;BME280;63736;50.076;8.198;2023-12-28T09:52:43;99651.03;;;9.47;100.00
75157;BME280;63736;50.076;8.198;2023-12-28T09:55:08;99641.56;;;9.42;100.00
75157;BME280;63736;50.076;8.198;2023-12-28T09:57:33;99649.56;;;9.42;100.00
75157;BME280;63736;50.076;8.198;2023-12-28T09:59:59;99647.63;;;9.45;100.00
75157;BME280;63736;50.076;8.198;2023-12-28T10:02:24;99644.22;;;9.42;100.00
75157;BME280;63736;50.076;8.198;2023-12-28T10:04:49;99646.91;;;9.42;100.00
75157;BME280;63736;50.076;8.198;2023-12-28T10:07:15;99654.44;;;9.49;100.00
75157;BME280;63736;50.076;8.198;2023-12-28T10:09:40;99647.88;;;9.53;100.00
75157;BME280;63736;50.076;8.198;2023-12-28T10:12:05;99646.47;;;9.60;100.00
75157;BME280;63736;50.076;8.198;2023-12-28T10:14:31;99649.00;;;9.73;100.00
75157;BME280;63736;50.076;8.198;2023-12-28T10:16:56;99643.56;;;9.86;100.00
75157;BME280;63736;50.076;8.198;2023-12-28T10:19:22;99639.41;;;9.93;100.00
75157;BME280;63736;50.076;8.198;2023-12-28T10:21:48;99643.53;;;9.97;100.00
75157;BME280;63736;50.076;8.198;2023-12-28T10:24:13;99641.72;;;9.98;100.00
75157;BME280;63736;50.076;8.198;2023-12-28T10:26:38;99651.41;;;9.99;100.00
75157;BME280;63736;50.076;8.198;2023-12-28T10:29:03;99651.06;;;10.03;100.00
75157;BME280;63736;50.076;8.198;2023-12-28T10:31:30;99643.66;;;10.07;100.00
75157;BME280;63736;50.076;8.198;2023-12-28T10:33:58;99650.31;;;10.13;100.00
75157;BME280;63736;50.076;8.198;2023-12-28T10:36:27;99638.69;;;10.14;100.00
75157;BME280;63736;50.076;8.198;2023-12-28T10:38:53;99656.41;;;10.15;100.00
75157;BME280;63736;50.076;8.198;2023-12-28T10:41:18;99648.13;;;10.18;100.00
75157;BME280;63736;50.076;8.198;2023-12-28T10:44:03;99645.47;;;10.18;100.00
75157;BME280;63736;50.076;8.198;2023-12-28T10:46:30;99644.38;;;10.20;100.00
75157;BME280;63736;50.076;8.198;2023-12-28T10:48:57;99636.22;;;10.22;100.00
75157;BME280;63736;50.076;8.198;2023-12-28T10:51:23;99637.69;;;10.26;100.00
75157;BME280;63736;50.076;8.198;2023-12-28T11:01:26;99629.81;;;10.36;100.00
75157;BME280;63736;50.076;8.198;2023-12-28T11:03:58;99638.44;;;10.39;100.00
75157;BME280;63736;50.076;8.198;2023-12-28T11:06:25;99629.31;;;10.42;100.00
75157;BME280;63736;50.076;8.198;2023-12-28T11:08:51;99626.38;;;10.45;100.00
75157;BME280;63736;50.076;8.198;2023-12-28T11:11:18;99624.31;;;10.49;100.00
75157;BME280;63736;50.076;8.198;2023-12-28T11:13:44;99613.38;;;10.52;100.00
75157;BME280;63736;50.076;8.198;2023-12-28T11:16:10;99628.06;;;10.57;100.00
75157;BME280;63736;50.076;8.198;2023-12-28T11:18:35;99621.63;;;10.60;100.00
75157;BME280;63736;50.076;8.198;2023-12-28T11:21:01;99617.84;;;10.63;100.00
75157;BME280;63736;50.076;8.198;2023-12-28T11:23:26;99617.56;;;10.66;100.00
75157;BME280;63736;50.076;8.198;2023-12-28T11:25:51;99608.31;;;10.70;100.00
75157;BME280;63736;50.076;8.198;2023-12-28T11:28:17;99616.09;;;10.73;100.00
75157;BME280;63736;50.076;8.198;2023-12-28T11:30:42;99612.19;;;10.77;100.00
75157;BME280;63736;50.076;8.198;2023-12-28T11:33:08;99615.34;;;10.82;100.00
75157;BME280;63736;50.076;8.198;2023-12-28T11:35:35;99605.22;;;10.86;100.00
75157;BME280;63736;50.076;8.198;2023-12-28T11:38:01;99600.47;;;10.89;100.00
75157;BME280;63736;50.076;8.198;2023-12-28T11:40:31;99599.97;;;10.96;100.00
75157;BME280;63736;50.076;8.198;2023-12-28T11:42:56;99601.00;;;11.04;100.00
75157;BME280;63736;50.076;8.198;2023-12-28T11:45:22;99596.72;;;11.13;100.00
75157;BME280;63736;50.076;8.198;2023-12-28T11:47:58;99607.19;;;11.26;100.00
75157;BME280;63736;50.076;8.198;2023-12-28T11:50:23;99606.00;;;11.40;100.00
75157;BME280;63736;50.076;8.198;2023-12-28T11:52:48;99606.75;;;11.52;100.00
75157;BME280;63736;50.076;8.198;2023-12-28T11:55:20;99588.09;;;11.62;100.00
75157;BME280;63736;50.076;8.198;2023-12-28T11:57:45;99578.81;;;11.66;100.00
75157;BME280;63736;50.076;8.198;2023-12-28T12:00:11;99577.69;;;11.68;100.00
75157;BME280;63736;50.076;8.198;2023-12-28T12:02:36;99567.84;;;11.69;100.00
75157;BME280;63736;50.076;8.198;2023-12-28T12:05:01;99567.59;;;11.72;100.00
75157;BME280;63736;50.076;8.198;2023-12-28T12:07:27;99561.50;;;11.70;100.00
75157;BME280;63736;50.076;8.198;2023-12-28T12:09:56;99563.03;;;11.63;100.00
75157;BME280;63736;50.076;8.198;2023-12-28T12:12:22;99551.91;;;11.57;100.00
75157;BME280;63736;50.076;8.198;2023-12-28T12:14:47;99556.53;;;11.55;100.00
75157;BME280;63736;50.076;8.198;2023-12-28T12:17:12;99554.00;;;11.54;100.00
75157;BME280;63736;50.076;8.198;2023-12-28T12:19:38;99546.94;;;11.53;100.00
75157;BME280;63736;50.076;8.198;2023-12-28T12:22:03;99545.38;;;11.50;100.00
75157;BME280;63736;50.076;8.198;2023-12-28T12:24:28;99539.06;;;11.51;100.00
75157;BME280;63736;50.076;8.198;2023-12-28T12:26:54;99540.03;;;11.50;100.00
75157;BME280;63736;50.076;8.198;2023-12-28T12:29:19;99534.81;;;11.49;100.00
75157;BME280;63736;50.076;8.198;2023-12-28T12:31:46;99529.47;;;11.49;100.00
75157;BME280;63736;50.076;8.198;2023-12-28T12:34:13;99524.97;;;11.49;100.00
75157;BME280;63736;50.076;8.198;2023-12-28T12:36:40;99517.06;;;11.48;100.00
75157;BME280;63736;50.076;8.198;2023-12-28T12:39:05;99510.16;;;11.45;100.00
75157;BME280;63736;50.076;8.198;2023-12-28T12:41:31;99515.78;;;11.42;100.00
75157;BME280;63736;50.076;8.198;2023-12-28T12:43:57;99520.56;;;11.38;100.00
75157;BME280;63736;50.076;8.198;2023-12-28T12:46:24;99505.63;;;11.36;100.00
75157;BME280;63736;50.076;8.198;2023-12-28T12:48:59;99510.25;;;11.34;100.00
75157;BME280;63736;50.076;8.198;2023-12-28T12:51:25;99514.75;;;11.33;100.00
75157;BME280;63736;50.076;8.198;2023-12-28T12:53:50;99516.59;;;11.33;100.00
75157;BME280;63736;50.076;8.198;2023-12-28T12:56:15;99518.41;;;11.32;100.00